Tiempo atmosférico en la estación meteorológica de Bardenas Reales, Base Aérea, Navarra (295 m.)



Fecha
DESCASC
Temp. máxima en grados centígrados (hora)
DESCASC
Temp. mínima en grados centígrados (hora)
DESCASC
Temp. media en grados centígrados
DESCASC
Racha de viento máxima en m/sg (hora)
DESCASC
Velocidad máxima media en intervalos de 10 minutos(hora)
DESCASC
Precipitaciones diarias en mm
DESCASC
Precipitaciones de 00:00 a 06:00 en mm
DESCASC
Precipitaciones de 06:00 a 12:00 en mm
DESCASC
Precipitaciones de 12:00 a 18:00 en mm
DESCASC
Precipitaciones de 18:00 a 24:00 en mm
DESCASC
18-04-2019 19.9 (15:30) 10.1 (07:30) 15 15.83 (15:10) 11.39 (15:10) 0 0 0 0 0
17-04-2019 21.5 (16:50) 9.7 (07:40) 15.6 13.61 (14:50) 10 (14:50) 0 0 0 0 0
16-04-2019 20.9 (17:10) 9.7 (00:00) 15.3 -- (--) -- (--) 5.2 5.2 0 0 0
15-04-2019 21.5 (15:40) 9.3 (00:00) 15.4 -- (--) -- (--) 4.8 0 0 0 4.8
14-04-2019 24.8 (16:50) 6.4 (00:00) 15.6 13.61 (19:10) 8.61 (17:50) 0 0 0 0 0
13-04-2019 23.6 (17:20) 3.3 (00:00) 13.5 11.11 (01:30) 7.5 (00:10) 0 0 0 0 0
12-04-2019 17.4 (17:10) 7.4 (00:00) 12.4 16.11 (18:40) 12.22 (10:20) 0 0 0 0 0
11-04-2019 14.7 (17:10) 7 (00:00) 10.8 15.83 (17:00) 11.39 (17:00) 0 0 0 0 0
10-04-2019 16.4 (17:40) 5.8 (00:00) 11.1 16.67 (16:00) 11.67 (19:10) 0 0 0 0 0
09-04-2019 18 (15:30) 3.9 (00:00) 11 14.72 (21:20) 9.17 (21:40) 7.4 0 0 4.8 2.6
08-04-2019 17.8 (16:10) 8.4 (00:00) 13.1 11.11 (01:50) 8.61 (01:50) 0.2 0 0.2 0 0
07-04-2019 16.1 (18:20) 6.1 (00:00) 11.1 11.94 (10:20) 8.33 (10:20) 1.8 1.8 0 0 0
06-04-2019 14.1 (17:00) 3.2 (00:00) 8.7 14.17 (13:10) 9.72 (17:10) 1.2 0 0 0 1.2
05-04-2019 13.6 (15:40) 6 (00:00) 9.8 14.72 (17:10) 10.83 (17:10) 6.6 0 0.4 0 6.2
04-04-2019 14.8 (17:40) -2.3 (-00:0) 6.3 13.06 (22:40) 7.78 (22:50) 0 0 0 0 0
03-04-2019 10.6 (00:00) 3.3 (00:00) 7 16.67 (17:20) 9.17 (17:30) 1.6 0 0 1.6 0
02-04-2019 19.6 (16:30) 7.1 (00:00) 13.4 9.72 (15:40) 5 (13:50) 0 0 0 0 0
01-04-2019 16.4 (17:00) 8.8 (00:00) 12.6 7.22 (19:50) 5.56 (19:50) 4.4 3.8 0 0 0.6
31-03-2019 15.6 (17:00) 3.8 (00:00) 9.7 8.89 (03:00) 6.94 (01:10) 1 0 0 0 1
30-03-2019 19.2 (17:00) 5 (00:00) 12.1 10.83 (02:00) 8.33 (02:10) 0 0 0 0 0
29-03-2019 20.3 (17:00) 3 (00:00) 11.6 13.61 (18:20) 10.28 (18:20) 0 0 0 0 0
28-03-2019 20.1 (17:00) 5.1 (00:00) 12.6 12.22 (00:10) 9.17 (01:30) 0 0 0 0 0
27-03-2019 20.4 (15:30) 1.6 (00:00) 11 16.67 (19:30) 11.39 (16:40) 0 0 0 0 0
26-03-2019 21.4 (16:00) 6.6 (00:00) 14 15.28 (02:50) 11.11 (02:50) 0 0 0 0 0
25-03-2019 16.2 (16:20) 8.3 (00:00) 12.3 20 (17:30) 14.44 (17:20) 0 0 0 0 0
24-03-2019 24.4 (16:30) 2.9 (00:00) 13.6 12.5 (18:00) 8.61 (23:40) 0 0 0 0 0
23-03-2019 23.6 (16:30) 1.6 (00:00) 12.6 6.67 (17:50) 4.72 (18:20) 0 0 0 0 0
22-03-2019 20.5 (15:50) -0.8 (-00:0) 9.8 7.5 (16:50) 5.28 (16:50) 0 0 0 0 0
21-03-2019 17.5 (16:50) 0.1 (00:00) 8.8 10.56 (00:10) 7.22 (00:10) 0 0 0 0 0

Gráficas

Temp. máximas Temp. mínimas Temp. medias Precipitaciones Rachas de viento máximas Velocidades máximas media en intervalos de 10 minutos

Datos horarios

Fecha y hora oficial Temperatura (ºC) Velocidad del viento (km/h) Dirección del viento Racha (km/h) Dirección de racha Precipitación (mm) Presión (hPa) Tendencia (hPa) Humedad (%)
2019-04-19 23:00:00 14.2 13 Este 23 Este 0 987.7 2.4 61
2019-04-19 22:00:00 16.4 17 Este 22 Sudeste 0 986.9 2.3 51
2019-04-19 21:00:00 17.7 10 Sudeste 14 Este 0 986 1.4 49
2019-04-19 20:00:00 19 12 Este 19 Este 0 985.3 0.8 46
2019-04-19 19:00:00 20 18 Este 27 Este 0 984.6 0.2 42
2019-04-19 18:00:00 20.4 19 Este 28 Sudeste 0 984.6 0.6 39
2019-04-19 17:00:00 19.4 21 Este 39 Este 0 984.5 0.2 42
2019-04-19 16:00:00 19.2 32 Este 54 Este 0 984.4 0.2 42
2019-04-19 15:00:00 20 33 Este 50 Este 0 984 -0.3 38
2019-04-19 14:00:00 18.8 34 Este 56 Este 0 984.3 0.1 44
2019-04-19 13:00:00 18.5 37 Sudeste 53 Este 0 984.2 0.4 48
2019-04-19 12:00:00 17 15 Este 23 Este 0.2 984.3 0.9 60
2019-04-19 11:00:00 13.6 4 Sudoeste -- -- 1.8 984.2 1.2 78
2019-04-19 10:00:00 11.9 4 Oeste 51 Norte -- 983.8 1 85
2019-04-19 09:00:00 11.3 7 Noroeste -- -- 0 983.4 1.6 89
2019-04-19 08:00:00 10.9 7 Noroeste -- -- -- 983 1.3 90
2019-04-19 07:00:00 11.2 6 Norte 11 Sur 0 982.8 1.1 87
2019-04-19 06:00:00 11.6 7 Sur 19 Sudeste 0 981.8 0.2 83
2019-04-19 05:00:00 11.4 11 Sur 26 Sur 0.8 981.7 0.3 82
2019-04-19 04:00:00 12.5 14 Sudeste 30 Este 0 981.7 1 71
2019-04-19 03:00:00 13.5 18 Sudeste 34 Sudeste 0 981.6 1.2 62
2019-04-19 02:00:00 14.8 21 Este 36 Este 0 981.4 1.8 54
2019-04-19 01:00:00 15.4 18 Este 29 Este 0 980.7 1.9 55
2019-04-19 00:00:00 16.1 19 Este 39 Este 0 980.4 2.8 50
2019-04-18 23:00:00 16.7 23 Sudeste 41 Sudeste 0 979.6 2.2 47
2019-04-18 22:00:00 16.9 21 Sudeste 40 Sudeste 0 978.8 1.3 47
2019-04-18 21:00:00 17.6 30 Sudeste 43 Este 0 977.6 -0.1 44
2019-04-18 20:00:00 17.8 27 Este 44 Este 0 977.4 -0.2 43
2019-04-18 19:00:00 17.9 21 Este 36 Sudeste 0 977.5 -0.6 43
2019-04-18 18:00:00 18.2 25 Sudeste 40 Sudeste 0 977.7 -0.6 39
2019-04-18 17:00:00 18.6 26 Este 44 Sudeste 0 977.6 -1.4 39
2019-04-18 16:00:00 19.3 33 Este 57 Este 0 978.1 -1.7 36
2019-04-18 15:00:00 19.5 36 Sudeste 51 Este 0 978.3 -2.3 35
2019-04-18 14:00:00 17.7 26 Sudeste 41 Sudeste 0 979 -1.9 46
2019-04-18 13:00:00 15.8 23 Este 37 Este 0 979.8 -1 57
2019-04-18 12:00:00 13.6 14 Este 19 Sudeste 0 980.6 -0.4 72
2019-04-18 11:00:00 12.4 9 Nordeste 20 Este 0 980.9 0.5 78
2019-04-18 10:00:00 11.9 14 Este 25 Este 0 980.8 0.5 78
2019-04-18 09:00:00 11.5 12 Este 22 Este 0 981 0.9 79
2019-04-18 08:00:00 10.2 15 Este 23 Este 0 980.4 0.1 83
2019-04-18 07:00:00 10.9 16 Este 24 Sudeste 0 980.3 0.3 80
2019-04-18 06:00:00 10.6 14 Este 23 Este 0 980.1 -0.2 82
2019-04-18 05:00:00 11.6 19 Este 25 Este 0 980.3 0.8 78
2019-04-18 04:00:00 11.7 7 Nordeste 17 Este 0 980 0.6 74
2019-04-18 03:00:00 12.5 12 Sudeste 40 Este 0 980.3 0.9 68
2019-04-18 02:00:00 13.3 33 Sudeste 48 Sudeste 0 979.5 1 64
2019-04-18 01:00:00 13.6 26 Este 40 Este 0 979.4 1.9 63
2019-04-18 00:00:00 14.2 32 Este 41 Este 0 979.4 2.9 65
2019-04-17 23:00:00 15.3 27 Este 41 Este 0 978.5 2 62
2019-04-17 22:00:00 16.9 18 Este 33 Sudeste 0 977.5 1.2 55
2019-04-17 21:00:00 17.6 24 Sudeste 38 Este 0 976.5 -0.2 54
2019-04-17 20:00:00 19.2 24 Sudeste 41 Este 0 976.5 -0.6 52
2019-04-17 19:00:00 20 29 Este 45 Este 0 976.3 -1.6 48
2019-04-17 18:00:00 20.1 31 Este 47 Este 0 976.7 -1.6 47
2019-04-17 17:00:00 20.9 34 Este 49 Este 0 977.1 -1.9 44
2019-04-17 16:00:00 20.6 36 Este 49 Este 0 977.9 -1.9 42
2019-04-17 15:00:00 19.7 35 Este 49 Este 0 978.3 -2.1 48
2019-04-17 14:00:00 17.9 33 Este 48 Sudeste 0 979 -1.9 51
2019-04-17 13:00:00 16.9 32 Sudeste 45 Sudeste 0 979.8 -1.3 53
2019-04-17 12:00:00 15.5 29 Sudeste 42 Sudeste 0 980.4 -1.1 58
2019-04-17 11:00:00 14.6 27 Este 39 Este 0 980.9 -0.3 62
2019-04-17 10:00:00 13 24 Sudeste 37 Este 0 981.1 0.1 71
2019-04-17 09:00:00 11.7 15 Sudeste 30 Este 0 981.5 0.1 78
2019-04-17 08:00:00 10.1 14 Este 32 Sudeste 0 981.2 -0.2 83
2019-04-17 07:00:00 9.9 19 Sudeste 36 Este 0 981 -1 82
2019-04-17 06:00:00 10.2 20 Sudeste 42 Este 0 981.4 -1.2 75
2019-04-17 05:00:00 10.6 26 Este 40 Este 0 981.4 -1.2 74
2019-04-17 04:00:00 10.8 23 Este 37 Este 0 982 -0.2 70
2019-04-17 03:00:00 11.1 21 Este 35 Este 0 982.6 0.7 66
2019-04-17 02:00:00 11.6 22 Este 32 Este 0 982.6 1 66
2019-04-17 01:00:00 12.6 21 Este 34 Este 0 982.2 1.1 70
2019-04-17 00:00:00 13.2 18 Este 28 Este 0 981.9 1.2 72
2019-04-16 23:00:00 14.1 24 Este 32 Este 0 981.6 0.8 69
2019-04-16 22:00:00 14.9 18 Este 24 Este 0 981.1 0.3 64
2019-04-16 21:00:00 17 16 Este 22 Este 0 980.7 -0.4 58
2019-04-16 20:00:00 19 16 Este 28 Este 0 980.8 -1 50
2019-04-16 19:00:00 19.8 21 Este 30 Este 0 980.8 -1.8 40
2019-04-16 18:00:00 20.4 18 Este -- -- -- 981.1 -2 40
2019-04-16 17:00:00 20.8 9 Sudeste -- -- -- 981.8 -1.7 37
2019-04-16 16:00:00 19.5 7 Este -- -- 0 982.6 -1.7 40
2019-04-16 15:00:00 18.9 6 Noroeste 15 Norte 0 983.1 -1.6 43
2019-04-16 14:00:00 17.6 10 Noroeste 19 Noroeste 0 983.5 -1 50
2019-04-16 13:00:00 16 10 Oeste 21 Oeste 0 984.3 0 59
2019-04-16 12:00:00 14.8 13 Oeste 21 Sudoeste 0 984.7 0.3 59
2019-04-16 11:00:00 13.8 13 Oeste 22 Oeste 0 984.5 1 68
2019-04-16 10:00:00 12.7 14 Noroeste 21 Noroeste 0 984.3 1.1 70
2019-04-16 09:00:00 11.2 14 Noroeste 24 Oeste 0 984.4 1.7 82
2019-04-16 08:00:00 9.7 17 Noroeste 21 Oeste 0 983.5 0.9 91
2019-04-16 07:00:00 10.6 15 Oeste 21 Oeste 0 983.2 0.5 89
2019-04-16 06:00:00 10.9 16 Oeste 23 Oeste 0 982.7 0.1 88
2019-04-16 05:00:00 10.7 8 Oeste 14 Oeste 0 982.6 0.3 93
2019-04-16 04:00:00 11.1 11 Sudoeste 15 Sudoeste 0.2 982.7 0.4 93
2019-04-16 03:00:00 10.9 8 Oeste 18 Norte 0.6 982.6 1.3 92
2019-04-16 02:00:00 11 13 Nordeste 19 Norte 2 982.3 2.4 90
2019-04-16 01:00:00 11.3 14 Norte 26 Norte 2.4 982.3 4 90
2019-04-16 00:00:00 12.3 20 Norte -- -- 0.4 981.3 3.3 85
2019-04-15 23:00:00 12.7 11 Este 31 Este 0 979.9 5.8 84
2019-04-15 22:00:00 13.2 23 Este -- -- 4 978.3 4.7 80
2019-04-15 21:00:00 14.9 -- -- -- -- 0 978 4.4 71
2019-04-15 20:00:00 16.6 46 Este 65 Este 0.4 974.1 0 63
2019-04-15 19:00:00 18.6 44 Este 65 Este 0 973.6 -1.1 53
2019-04-15 18:00:00 20.2 45 Este 68 Este 0 973.6 -1.9 48
2019-04-15 17:00:00 20.2 44 Este 65 Este 0 974.1 -2.3 48
2019-04-15 16:00:00 20.3 47 Este 62 Este 0 974.7 -2.9 45
2019-04-15 15:00:00 20.3 43 Este 58 Este 0 975.5 -2.5 44
2019-04-15 14:00:00 18.9 42 Este 56 Este 0 976.4 -2.2 49
2019-04-15 13:00:00 17.8 32 Este 51 Este 0 977.6 -1.2 55
2019-04-15 12:00:00 16.4 34 Este 49 Este 0 978 -1.3 65
2019-04-15 11:00:00 14.4 33 Este 53 Este 0 978.6 -0.4 73
2019-04-15 10:00:00 13.4 38 Este 55 Este 0 978.8 -0.3 74
2019-04-15 09:00:00 12.5 27 Este 39 Sudeste 0 979.3 0 78
2019-04-15 08:00:00 9.8 13 Este 29 Este 0 979 -0.2 87
2019-04-15 07:00:00 10.4 10 Este 26 Este 0 979.1 -0.4 88
2019-04-15 06:00:00 9.6 12 Sudeste 16 Este 0 979.3 -0.5 88
2019-04-15 05:00:00 9.9 0 Calma 7 Nordeste 0 979.2 -1.4 85
2019-04-15 04:00:00 10.2 7 Nordeste 10 Sudoeste 0 979.5 -1.1 84
2019-04-15 03:00:00 11.5 5 Este 6 Este 0 979.8 -1 81
2019-04-15 02:00:00 13 6 Sudoeste 9 Sur 0 980.6 -0.2 78
2019-04-15 01:00:00 13.2 6 Sur 11 Sudeste 0 980.6 0.2 74
2019-04-15 00:00:00 14.7 5 Norte 15 Noroeste 0 980.8 1 71
2019-04-14 23:00:00 16.3 9 Oeste 16 Oeste 0 980.8 1.5 65
2019-04-14 22:00:00 17.1 10 Noroeste 27 Norte 0 980.4 1.2 64
2019-04-14 21:00:00 18.6 22 Norte 36 Norte 0 979.8 0.8 58
2019-04-14 20:00:00 21.1 26 Norte 49 Norte 0 979.3 0.3 47
2019-04-14 19:00:00 22.5 28 Norte 44 Noroeste 0 979.2 -0.1 42
2019-04-14 18:00:00 23.8 30 Noroeste 42 Noroeste 0 979 -0.8 36
2019-04-14 17:00:00 24.4 23 Noroeste 42 Noroeste 0 979 -1.3 33
2019-04-14 16:00:00 24 26 Noroeste 38 Noroeste 0 979.3 -1.4 32
2019-04-14 15:00:00 23.1 12 Noroeste -- -- 0 979.8 -1.2 31
2019-04-14 14:00:00 21.9 19 Noroeste 39 Noroeste 0 980.3 -0.7 32
2019-04-14 13:00:00 20.2 25 Noroeste 38 Noroeste 0 980.7 -0.3 32
2019-04-14 12:00:00 18.9 19 Noroeste 27 Noroeste 0 981 0 30
2019-04-14 11:00:00 15 6 Sudoeste 10 Sudoeste 0 981 0.1 44
2019-04-14 10:00:00 12.1 2 Oeste 5 Sudoeste 0 981 0.6 50
2019-04-14 09:00:00 9.1 4 Sur 5 Sur 0 981 0.5 61
2019-04-14 08:00:00 7.3 0 Calma 8 Sudoeste 0 980.9 0.1 65
2019-04-14 07:00:00 6.5 5 Sur 6 Sur 0 980.4 -0.5 68
2019-04-14 06:00:00 6.5 0 Calma 5 Norte 0 980.5 -0.4 74
2019-04-14 05:00:00 6.9 2 Noroeste 4 Norte 0 980.8 -0.5 61
2019-04-14 04:00:00 7.8 2 Oeste 4 Sudeste 0 980.9 -0.4 57
2019-04-14 03:00:00 8.3 2 Sudeste 6 Sudeste 0 980.9 -0.6 51
2019-04-14 02:00:00 9.6 3 Sudeste 5 Noroeste 0 981.3 0.2 43
2019-04-14 01:00:00 10.4 6 Norte 8 Sudoeste 0 981.3 0.7 42
2019-04-14 00:00:00 12.6 9 Sudoeste 11 Sudoeste 0 981.5 1.3 30
2019-04-13 23:00:00 12.8 8 Norte 14 Norte 0 981.1 1.2 34
2019-04-13 22:00:00 15.3 10 Norte 13 Norte 0 980.6 0.7 25
2019-04-13 21:00:00 19 8 Noroeste 11 Noroeste 0 980.2 -0.1 15
2019-04-13 20:00:00 22.7 12 Noroeste 22 Norte 0 979.9 -0.6 10
2019-04-13 19:00:00 23.2 13 Noroeste 23 Noroeste 0 979.9 -1.3 9
2019-04-13 18:00:00 23.3 15 Oeste 28 Oeste 0 980.3 -1.6 7
2019-04-13 17:00:00 23.3 17 Oeste 28 Oeste 0 980.5 -1.8 6
2019-04-13 16:00:00 22.8 16 Noroeste 26 Noroeste 0 981.2 -1.8 8
2019-04-13 15:00:00 21.5 16 Noroeste 27 Noroeste 0 981.9 -1.6 11
2019-04-13 14:00:00 19.4 13 Noroeste 24 Oeste 0 982.3 -1.6 13
2019-04-13 13:00:00 17.5 10 Noroeste 22 Oeste 0 983 -1 17
2019-04-13 12:00:00 14.8 11 Noroeste 21 Noroeste 0 983.5 -0.3 27
2019-04-13 11:00:00 11.7 13 Noroeste 19 Noroeste 0 983.9 0.4 36
2019-04-13 10:00:00 8.4 6 Sudoeste 10 Sudoeste 0 984 1.1 53
2019-04-13 09:00:00 5.7 3 Oeste 7 Sudoeste 0 983.8 1.2 64
2019-04-13 08:00:00 3.4 4 Oeste 11 Noroeste 0 983.5 1 72
2019-04-13 07:00:00 4.6 9 Noroeste 12 Noroeste 0 982.9 0.4 72
2019-04-13 06:00:00 4.5 5 Noroeste 12 Noroeste 0 982.6 -0.4 72
2019-04-13 05:00:00 5.9 6 Noroeste 23 Noroeste 0 982.5 -0.6 70
2019-04-13 04:00:00 6.7 16 Noroeste 25 Noroeste 0 982.5 -0.6 69
2019-04-13 03:00:00 7.3 21 Noroeste 28 Noroeste 0 983 0.2 68
2019-04-13 02:00:00 7.9 21 Noroeste 40 Noroeste 0 983.1 0.5 67
2019-04-13 01:00:00 8.9 26 Noroeste 36 Oeste 0 983.1 1 64
2019-04-13 00:00:00 9.4 27 Noroeste 39 Noroeste 0 982.8 1.3 64
2019-04-12 23:00:00 10.4 24 Noroeste 39 Oeste 0 982.6 1.5 60
2019-04-12 22:00:00 11.3 29 Oeste 37 Oeste 0 982.1 1.3 57
2019-04-12 21:00:00 12.9 31 Noroeste 50 Noroeste 0 981.5 0.7 50
2019-04-12 20:00:00 15 37 Noroeste 54 Noroeste 0 981.1 0 42
2019-04-12 19:00:00 16.3 40 Noroeste 58 Noroeste 0 980.8 -1.1 39
2019-04-12 18:00:00 16.9 41 Noroeste 54 Noroeste 0 980.8 -1.3 36
2019-04-12 17:00:00 17.2 36 Noroeste 57 Noroeste 0 981.1 -1.2 34
2019-04-12 16:00:00 17 36 Noroeste 58 Noroeste 0 981.9 -0.9 36
2019-04-12 15:00:00 16.6 35 Noroeste 51 Noroeste 0 982.1 -1.3 38
2019-04-12 14:00:00 15.6 37 Noroeste 53 Noroeste 0 982.3 -1 38
2019-04-12 13:00:00 14.5 39 Noroeste 56 Noroeste 0 982.8 -0.3 44
2019-04-12 12:00:00 13.5 38 Noroeste 54 Oeste 0 983.4 0.3 49
2019-04-12 11:00:00 12.2 36 Noroeste 57 Noroeste 0 983.3 0.2 59
2019-04-12 10:00:00 10.6 37 Noroeste 52 Noroeste 0 983.1 0.3 66
2019-04-12 09:00:00 8.8 28 Noroeste 41 Noroeste 0 983.1 0.3 74
2019-04-12 08:00:00 7.9 29 Noroeste 41 Noroeste 0 983.1 0 77
2019-04-12 07:00:00 7.9 32 Noroeste 41 Noroeste 0 982.8 -0.4 78
2019-04-12 06:00:00 7.7 24 Noroeste 36 Noroeste 0 982.8 -0.9 79
2019-04-12 05:00:00 7.4 23 Noroeste 39 Oeste 0 983.1 -1 78
2019-04-12 04:00:00 7.6 26 Noroeste 43 Oeste 0 983.2 -1.4 77
2019-04-12 03:00:00 8.2 30 Noroeste 45 Oeste 0 983.7 -0.9 75
2019-04-12 02:00:00 8.1 31 Oeste 40 Oeste 0 984.1 -0.3 74
2019-04-12 01:00:00 7.8 19 Noroeste 32 Noroeste 0 984.6 0.5 74
2019-04-12 00:00:00 7.8 18 Noroeste 30 Noroeste 0 984.6 1.2 71
2019-04-11 23:00:00 9 25 Noroeste 39 Noroeste 0 984.4 1.5 66
2019-04-11 22:00:00 10 28 Noroeste 48 Noroeste 0 984.1 1.6 61
2019-04-11 21:00:00 11.2 35 Noroeste 51 Noroeste 0 983.4 1 60
2019-04-11 20:00:00 12.5 32 Noroeste 48 Noroeste 0 982.9 0.6 61
2019-04-11 19:00:00 13.6 37 Noroeste 55 Noroeste 0 982.5 0.1 53
2019-04-11 18:00:00 13.6 37 Noroeste 51 Noroeste 0 982.4 -0.2 52
2019-04-11 17:00:00 14.4 41 Noroeste 57 Noroeste 0 982.3 -0.6 53
2019-04-11 16:00:00 13.7 35 Noroeste 52 Noroeste 0 982.4 -1 55
2019-04-11 15:00:00 13.1 37 Noroeste 55 Oeste 0 982.6 -0.6 56
2019-04-11 14:00:00 13.5 33 Noroeste 48 Noroeste 0 982.9 -0.2 55
2019-04-11 13:00:00 11.8 35 Noroeste 54 Noroeste 0 983.4 0.4 61
2019-04-11 12:00:00 12.9 34 Noroeste 51 Noroeste 0 983.2 0.2 56
2019-04-11 11:00:00 10.6 32 Noroeste 48 Noroeste 0 983.1 0.4 63
2019-04-11 10:00:00 9.5 26 Noroeste 37 Noroeste 0 983 0.6 70
2019-04-11 09:00:00 7.7 20 Noroeste 31 Noroeste 0 983 0.8 79
2019-04-11 08:00:00 7 19 Noroeste 27 Noroeste 0 982.7 0.4 82
2019-04-11 07:00:00 7.8 21 Noroeste 33 Noroeste 0 982.4 0.4 79
2019-04-11 06:00:00 8.2 24 Noroeste 40 Noroeste 0 982.2 -0.1 76
2019-04-11 05:00:00 7.1 22 Noroeste 33 Noroeste 0 982.3 -0.1 79
2019-04-11 04:00:00 8 26 Noroeste 35 Noroeste 0 982 0 74
2019-04-11 03:00:00 8.2 25 Noroeste 38 Noroeste 0 982.3 0.6 70
2019-04-11 02:00:00 8.4 27 Noroeste 39 Noroeste 0 982.4 0.8 70
2019-04-11 01:00:00 8.5 28 Noroeste 43 Noroeste 0 982 1.4 72
2019-04-11 00:00:00 8.7 29 Noroeste 42 Noroeste 0 981.7 2.2 72
2019-04-10 23:00:00 9.5 28 Noroeste 44 Noroeste 0 981.6 3.2 73
2019-04-10 22:00:00 10.3 33 Noroeste 50 Noroeste 0 980.6 3.1 69
2019-04-10 21:00:00 11.3 35 Noroeste 54 Noroeste 0 979.5 2.5 63
2019-04-10 20:00:00 14.3 32 Noroeste 57 Noroeste 0 978.4 1.6 46
2019-04-10 19:00:00 15.4 40 Noroeste 54 Noroeste 0 977.5 0.7 47
2019-04-10 18:00:00 16.2 38 Noroeste 53 Noroeste 0 977 -0.1 39
2019-04-10 17:00:00 16 38 Noroeste 55 Noroeste 0 976.8 -0.4 45
2019-04-10 16:00:00 16.1 35 Noroeste 60 Noroeste 0 976.8 -0.9 47
2019-04-10 15:00:00 14.8 33 Noroeste 57 Noroeste 0 977.1 -0.8 54
2019-04-10 14:00:00 13.5 40 Noroeste 56 Noroeste 0 977.2 -0.6 61
2019-04-10 13:00:00 12.5 39 Noroeste 53 Noroeste 0 977.7 0.5 65
2019-04-10 12:00:00 11.4 35 Noroeste 48 Noroeste 0 977.9 0.8 67
2019-04-10 11:00:00 9.6 22 Noroeste 35 Noroeste 0 977.8 1.2 75
2019-04-10 10:00:00 8.6 28 Oeste 38 Oeste 0 977.2 0.9 75
2019-04-10 09:00:00 7.9 21 Noroeste 30 Oeste 0 977.1 1.2 78
2019-04-10 08:00:00 6.7 17 Noroeste 21 Noroeste 0 976.6 0.4 84
2019-04-10 07:00:00 6 4 Oeste 14 Noroeste 0 976.3 -0.1 86
2019-04-10 06:00:00 7.1 14 Noroeste 21 Oeste 0 975.9 -0.7 81
2019-04-10 05:00:00 6.7 19 Noroeste 25 Noroeste 0 976.2 -0.5 85
2019-04-10 04:00:00 7.4 13 Noroeste 19 Noroeste 0 976.4 -0.5 87
2019-04-10 03:00:00 7.5 13 Noroeste 26 Noroeste 0 976.6 -0.2 86
2019-04-10 02:00:00 7.7 15 Oeste 25 Oeste 0 976.7 -0.2 86
2019-04-10 01:00:00 7.9 17 Noroeste 35 Oeste 0 976.9 0.7 86
2019-04-10 00:00:00 8.4 26 Oeste 37 Oeste 0 976.8 1.9 87
2019-04-09 23:00:00 9 23 Oeste 31 Noroeste 1.4 976.9 2.4 87
2019-04-09 22:00:00 8.8 22 Noroeste 53 Oeste 0.4 976.2 2.5 86
2019-04-09 21:00:00 10.3 13 Sudoeste 28 Oeste 0.6 974.9 1.7 79
2019-04-09 20:00:00 10.5 18 Oeste 36 Oeste 0.2 974.5 0.8 81
2019-04-09 19:00:00 13 21 Oeste 36 Oeste 0 973.7 0.1 64
2019-04-09 18:00:00 13.1 15 Sur 35 Sudoeste 0 973.2 -0.8 70
2019-04-09 17:00:00 12.7 -- -- -- -- 4.8 973.7 -1 56
2019-04-09 16:00:00 16.6 8 Sudoeste 17 Oeste 0 973.6 -1.6 37
2019-04-09 15:00:00 17.9 5 Oeste 17 Oeste 0 974 -1.8 36
2019-04-09 14:00:00 16.3 10 Oeste 22 Oeste 0 974.7 -1.6 39
2019-04-09 13:00:00 15.3 5 Sudoeste 18 Noroeste 0 975.2 -1.4 43
2019-04-09 12:00:00 14.2 5 Noroeste 15 Noroeste 0 975.8 -0.9 50
2019-04-09 11:00:00 12.3 8 Noroeste 14 Noroeste 0 976.3 0 60
2019-04-09 10:00:00 10.2 3 Norte 7 Norte 0 976.6 0.3 79
2019-04-09 09:00:00 5.9 3 Noroeste 7 Noroeste 0 976.7 0.6 93
2019-04-09 08:00:00 4 3 Norte 6 Norte 0 976.3 0.1 93
2019-04-09 07:00:00 5.2 3 Norte 9 Sur 0 976.3 0.2 92
2019-04-09 06:00:00 5.9 4 Sudeste 12 Oeste 0 976.1 -0.1 89
2019-04-09 05:00:00 7 8 Sudoeste 10 Sudoeste 0 976.2 0.1 87
2019-04-09 04:00:00 7.8 4 Noroeste 8 Noroeste 0 976.1 -0.1 85
2019-04-09 03:00:00 8.5 5 Sudoeste 7 Sudoeste 0 976.2 0 83
2019-04-09 02:00:00 9.1 4 Norte 16 Noroeste 0 976.1 -0.1 83
2019-04-09 01:00:00 10.4 5 Oeste 11 Noroeste 0 976.2 0.3 80
2019-04-09 00:00:00 11.1 5 Sudoeste 12 Sudoeste 0 976.2 0.9 75
2019-04-08 23:00:00 11.8 5 Oeste 9 Noroeste 0 976.2 1.2 72
2019-04-08 22:00:00 12.8 4 Este 15 Norte 0 975.9 0.6 67
2019-04-08 21:00:00 13.6 13 Norte 19 Norte 0 975.3 0.3 61
2019-04-08 20:00:00 15.9 14 Noroeste 26 Norte 0 975 -0.1 50
2019-04-08 19:00:00 15.8 16 Noroeste 35 Noroeste 0 975.3 -0.1 52
2019-04-08 18:00:00 16.2 26 Noroeste 36 Noroeste 0 975 -1.1 57
2019-04-08 17:00:00 17.8 19 Noroeste 29 Noroeste 0 975.1 -1.2 49
2019-04-08 16:00:00 17.5 15 Norte 22 Norte 0 975.4 -1.1 52
2019-04-08 15:00:00 16.5 6 Noroeste 17 Nordeste 0 976.1 -0.8 54
2019-04-08 14:00:00 15.7 9 Nordeste 21 Este 0 976.3 -0.5 59
2019-04-08 13:00:00 14.4 14 Este 24 Este 0 976.5 -0.2 64
2019-04-08 12:00:00 12.8 18 Este 28 Este 0 976.9 0.3 69
2019-04-08 11:00:00 10.6 20 Este 28 Este 0 976.8 0.6 77
2019-04-08 10:00:00 9.6 18 Este 29 Este 0 976.7 0.9 82
2019-04-08 09:00:00 8.8 18 Este 24 Este 0 976.6 0.8 86
2019-04-08 08:00:00 8.6 15 Este 25 Este 0 976.2 0 86
2019-04-08 07:00:00 8.5 19 Este 26 Este 0.2 975.8 -0.5 87
2019-04-08 06:00:00 8.9 15 Este 22 Este 0 975.8 -0.3 83
2019-04-08 05:00:00 8.7 11 Este 16 Este 0 976.2 -0.6 82
2019-04-08 04:00:00 9.4 8 Sudeste 14 Este 0 976.3 -0.3 78
2019-04-08 03:00:00 9.7 10 Sur 35 Sudoeste 0 976.1 -0.3 74
2019-04-08 02:00:00 11.1 27 Sudoeste 40 Sudoeste 0 976.8 0.3 61
2019-04-08 01:00:00 11.5 19 Sudoeste 30 Sudoeste 0 976.6 0.1 55
2019-04-08 00:00:00 9.9 15 Este 21 Este 0 976.4 0.4 71
2019-04-07 23:00:00 11 17 Este 18 Este 0 976.5 1.1 64
2019-04-07 22:00:00 11.3 11 Sudeste 12 Sudeste 0 976.5 1.5 66
2019-04-07 21:00:00 13 5 Nordeste 13 Norte 0 976 1.1 55
2019-04-07 20:00:00 14.5 9 Noroeste 19 Noroeste 0 975.4 0.6 43
2019-04-07 19:00:00 15.1 10 Norte 22 Noroeste 0 975 0 38
2019-04-07 18:00:00 15.8 14 Noroeste 31 Noroeste 0 974.9 -0.1 35
2019-04-07 17:00:00 15.7 14 Noroeste 42 Noroeste 0 974.8 -0.1 44
2019-04-07 16:00:00 14.4 21 Noroeste 33 Noroeste 0 975 0.1 45
2019-04-07 15:00:00 14.3 21 Noroeste 36 Noroeste 0 975 0.7 49
2019-04-07 14:00:00 13.5 18 Noroeste 35 Noroeste 0 974.9 1 52
2019-04-07 13:00:00 11.9 19 Noroeste 41 Noroeste 0 974.9 1.5 56
2019-04-07 12:00:00 11.1 26 Noroeste 37 Oeste 0 974.3 1.7 59
2019-04-07 11:00:00 9.8 27 Oeste 43 Oeste 0 973.9 2.2 68
2019-04-07 10:00:00 8.2 22 Noroeste 33 Noroeste 0 973.4 2.6 75
2019-04-07 09:00:00 6.5 18 Noroeste 30 Oeste 0 972.6 2.4 82
2019-04-07 08:00:00 6.3 5 Sudoeste 8 Sudoeste 0 971.7 2 89
2019-04-07 07:00:00 6.2 2 Sur 15 Noroeste 0 970.8 1.6 91
2019-04-07 06:00:00 6.2 15 Noroeste 28 Noroeste 0 970.2 1.3 91
2019-04-07 05:00:00 6.6 13 Noroeste 21 Oeste 0.4 969.7 1.3 90
2019-04-07 04:00:00 6.7 11 Norte 25 Noroeste 1 969.2 1 91
2019-04-07 03:00:00 7.1 9 Oeste 13 Noroeste 0.4 968.9 1.4 91
2019-04-07 02:00:00 7.3 6 Sudeste 17 Este 0 968.4 1.1 86
2019-04-07 01:00:00 7.4 3 Sur 13 Nordeste 0 968.2 1.7 86
2019-04-07 00:00:00 7.5 10 Nordeste -- -- 0.4 967.5 1.9 84
2019-04-06 23:00:00 7.5 23 Noroeste 37 Noroeste 0.8 967.3 2.1 83
2019-04-06 22:00:00 9.3 12 Sudeste 21 Sur 0 966.5 1.8 69
2019-04-06 21:00:00 10.3 17 Sur 34 Sur 0 965.6 1.1 59
2019-04-06 20:00:00 11.2 21 Sur 30 Sur 0 965.2 0.6 55
2019-04-06 19:00:00 11.6 21 Sur 32 Sur 0 964.7 0.2 55
2019-04-06 18:00:00 11.9 16 Sudoeste 47 Sudoeste 0 964.5 -0.5 53
2019-04-06 17:00:00 13.6 33 Sudoeste 51 Sudoeste 0 964.6 -0.7 45
2019-04-06 16:00:00 13.4 29 Sudoeste 40 Sudoeste 0 964.5 -0.9 50
2019-04-06 15:00:00 13 34 Sur 48 Sudoeste 0 965 -0.6 50
2019-04-06 14:00:00 11.7 32 Sudoeste 51 Sudoeste 0 965.3 -0.5 55
2019-04-06 13:00:00 12.3 24 Sudoeste -- -- 0 965.4 -0.4 51
2019-04-06 12:00:00 10.8 7 Nordeste 13 Este 0 965.6 0.1 60
2019-04-06 11:00:00 9.1 3 Sur 5 Oeste 0 965.8 0.9 72
2019-04-06 10:00:00 6.3 3 Sudeste 7 Este 0 965.8 1.1 90
2019-04-06 09:00:00 3.6 3 Sudoeste 7 Sur 0 965.5 1.1 95
2019-04-06 08:00:00 3.6 4 Sur 6 Nordeste 0 964.9 0.6 94
2019-04-06 07:00:00 4.7 4 Sur 15 Sudoeste 0 964.7 0.2 93
2019-04-06 06:00:00 5 11 Sudoeste 15 Sudoeste 0 964.4 -0.1 95
2019-04-06 05:00:00 5.1 0 Calma 5 Sur 0 964.3 -0.3 96
2019-04-06 04:00:00 5.4 3 Norte 5 Oeste 0 964.5 -0.1 95
2019-04-06 03:00:00 5.6 4 Oeste 9 Sudoeste 0 964.5 0.3 95
2019-04-06 02:00:00 6.1 6 Sur 10 Sur 0 964.6 0.2 95
2019-04-06 01:00:00 6.4 4 Sudoeste 15 Norte 0 964.6 0.5 93
2019-04-06 00:00:00 6.4 10 Norte 21 Norte 0.2 964.2 0.7 93
2019-04-05 23:00:00 6.4 15 Norte 32 Noroeste 1.8 964.4 2.1 94
2019-04-05 22:00:00 6.1 22 Noroeste 39 Oeste 4.2 964.1 1.3 95
2019-04-05 21:00:00 8.4 -- -- -- -- 0 963.5 0.6 78
2019-04-05 20:00:00 9.1 27 Este 43 Este 0 962.3 0 74
2019-04-05 19:00:00 10.1 30 Este 44 Este 0 962.8 -0.1 72
2019-04-05 18:00:00 11.2 32 Este 53 Sudeste 0 962.9 -0.4 66
2019-04-05 17:00:00 12.4 34 Sudeste 48 Sudeste 0 962.3 -1.7 54
2019-04-05 16:00:00 12.8 32 Sudeste 44 Sudeste 0 962.9 -1.6 50
2019-04-05 15:00:00 13.2 27 Sudeste 37 Sudeste 0 963.3 -1.6 51
2019-04-05 14:00:00 12.3 19 Este 36 Este 0 964 -0.6 58
2019-04-05 13:00:00 10.6 28 Este 41 Este 0 964.5 -0.4 72
2019-04-05 12:00:00 9.3 30 Este 45 Este 0 964.9 -0.2 75
2019-04-05 11:00:00 8.6 33 Este 44 Este 0.2 964.6 0.1 79
2019-04-05 10:00:00 6.9 28 Este 42 Este 0.2 964.9 0.8 85
2019-04-05 09:00:00 7.4 17 Este 39 Este 0 965.1 1 77
2019-04-05 08:00:00 8.1 26 Este 41 Este 0 964.5 0.4 64
2019-04-05 07:00:00 8.1 31 Este 45 Este 0 964.1 -0.1 64
2019-04-05 06:00:00 8.1 26 Este 51 Este 0 964.1 -0.4 62
2019-04-05 05:00:00 8.4 31 Este 44 Este 0 964.1 -0.2 55
2019-04-05 04:00:00 8.9 27 Este 37 Sudeste 0 964.2 -0.9 48
2019-04-05 03:00:00 9.4 26 Este 39 Este 0 964.5 -1.2 44
2019-04-05 02:00:00 9.8 30 Este 46 Este 0 964.3 -1.2 41
2019-04-05 01:00:00 10.2 24 Este 34 Este 0 965.1 -0.6 41
2019-04-05 00:00:00 9.7 16 Este 32 Este 0 965.7 0.6 48
2019-04-04 23:00:00 10.8 27 Este 47 Este 0 965.5 0.4 41
2019-04-04 22:00:00 10.6 15 Este 31 Este 0 965.7 0.3 46
2019-04-04 21:00:00 11.5 24 Este 32 Este 0 965.1 -0.9 41
2019-04-04 20:00:00 12.8 23 Este 36 Este 0 965.1 -1.5 37
2019-04-04 19:00:00 13.4 24 Este 43 Sudeste 0 965.4 -2 33
2019-04-04 18:00:00 14.2 21 Este -- -- 0 966 -2.3 34
2019-04-04 17:00:00 13.7 11 Este 23 Sudeste 0 966.6 -2.6 32
2019-04-04 16:00:00 13.9 4 Noroeste 15 Norte 0 967.4 -2.6 30
2019-04-04 15:00:00 12.4 8 Oeste 30 Noroeste 0 968.3 -2 33
2019-04-04 14:00:00 11.3 14 Oeste 30 Oeste 0 969.2 -1.1 35
2019-04-04 13:00:00 9.9 17 Oeste 29 Oeste 0 970 -0.5 43
2019-04-04 12:00:00 8.4 12 Oeste 23 Noroeste 0 970.3 0.2 51
2019-04-04 11:00:00 6 6 Noroeste 13 Oeste 0 970.3 0.5 65
2019-04-04 10:00:00 3 0 Calma 8 Norte 0 970.5 1.2 81
2019-04-04 09:00:00 0.1 0 Calma 6 Sur 0 970.1 0.9 91
2019-04-04 08:00:00 -2.2 5 Sur 8 Sudeste 0 969.8 0.6 93
2019-04-04 07:00:00 -1.3 6 Norte 10 Sur 0 969.3 -0.3 94
2019-04-04 06:00:00 -1.3 6 Sur 10 Nordeste 0 969.2 -0.8 91
2019-04-04 05:00:00 -0.9 4 Oeste 7 Nordeste 0 969.2 -1.3 89
2019-04-04 04:00:00 -0.3 3 Este 9 Sudoeste 0 969.6 -1.5 89
2019-04-04 03:00:00 0.7 4 Sudoeste 11 Noroeste 0 970 -1.2 85
2019-04-04 02:00:00 2.4 8 Noroeste 15 Noroeste 0 970.5 -0.7 78
2019-04-04 01:00:00 2 9 Oeste 11 Oeste 0 971.1 0.3 80
2019-04-04 00:00:00 3.3 4 Sur 20 Noroeste 0 971.2 1 72
2019-04-03 23:00:00 4.8 17 Oeste 23 Oeste 0 971.2 1.1 65
2019-04-03 22:00:00 5.6 14 Noroeste 30 Oeste 0 970.8 0.4 63
2019-04-03 21:00:00 7.3 19 Noroeste 31 Noroeste 0 970.2 -0.4 58
2019-04-03 20:00:00 7.8 9 Sudoeste 22 Oeste 0 970.1 0.5 76
2019-04-03 19:00:00 7 16 Oeste 34 Oeste 0 970.4 0 81
2019-04-03 18:00:00 6.7 31 Noroeste 60 Oeste 0.4 970.6 -0.5 81
2019-04-03 17:00:00 10.6 16 Oeste 45 Noroeste 0 969.6 -2.6 57
2019-04-03 16:00:00 9.5 26 Oeste 41 Noroeste 0 970.4 -2.3 67
2019-04-03 15:00:00 9.4 5 Sudoeste 12 Oeste 0.2 971.1 -2 71
2019-04-03 14:00:00 7.6 8 Noroeste 22 Noroeste 1 972.2 -1 86
2019-04-03 13:00:00 8.4 11 Noroeste 17 Noroeste 0 972.7 -0.7 75
2019-04-03 12:00:00 8.6 13 Noroeste 17 Noroeste 0 973.1 -0.3 75
2019-04-03 11:00:00 8.5 10 Noroeste 24 Noroeste 0 973.2 -0.2 78
2019-04-03 10:00:00 8.8 18 Noroeste 28 Noroeste 0 973.4 -0.3 74
2019-04-03 09:00:00 8.7 10 Noroeste 16 Noroeste 0 973.4 -0.5 78
2019-04-03 08:00:00 8.9 7 Noroeste 18 Noroeste 0 973.4 -1.3 78
2019-04-03 07:00:00 9.1 12 Noroeste 19 Noroeste 0 973.7 -1.4 78
2019-04-03 06:00:00 9.4 14 Noroeste 19 Noroeste 0 973.9 -2.1 77
2019-04-03 05:00:00 9.6 17 Noroeste 25 Noroeste 0 974.7 -1.9 75
2019-04-03 04:00:00 10.1 17 Noroeste 24 Noroeste 0 975.1 -2.2 74
2019-04-03 03:00:00 9.4 7 Noroeste 12 Noroeste 0 976 -1.6 79
2019-04-03 02:00:00 9 2 Sur 9 Noroeste 0 976.6 -1 77
2019-04-03 01:00:00 9.4 3 Sudoeste 10 Noroeste 0 977.3 -0.1 74
2019-04-03 00:00:00 10.6 8 Noroeste 15 Oeste 0 977.6 1 69
2019-04-02 23:00:00 12.3 11 Noroeste 18 Noroeste 0 977.6 1.3 61
2019-04-02 22:00:00 13 15 Noroeste 26 Norte 0 977.4 0.8 59
2019-04-02 21:00:00 14.4 12 Norte 19 Nordeste 0 976.6 -0.1 54
2019-04-02 20:00:00 16.7 8 Noroeste 21 Oeste 0 976.3 -1.1 43
2019-04-02 19:00:00 18 15 Noroeste 26 Noroeste 0 976.6 -1.3 35
2019-04-02 18:00:00 18.7 17 Noroeste 25 Noroeste 0 976.7 -2 35
2019-04-02 17:00:00 18.5 12 Noroeste -- -- 0 977.4 -2.2 37
2019-04-02 16:00:00 19.1 11 Noroeste 35 Noroeste 0 977.9 -2.5 33
2019-04-02 15:00:00 18.4 16 Noroeste 27 Noroeste 0 978.7 -2.3 37
2019-04-02 14:00:00 17.2 17 Noroeste 29 Oeste 0 979.6 -1.4 51
2019-04-02 13:00:00 15.5 12 Noroeste 20 Oeste 0 980.4 -0.3 62
2019-04-02 12:00:00 14 10 Noroeste 15 Oeste 0 981 0.4 77
2019-04-02 11:00:00 11.6 11 Oeste 17 Noroeste 0 981 0.7 85
2019-04-02 10:00:00 10 4 Sur 9 Sudoeste 0 980.7 0.7 96
2019-04-02 09:00:00 8.8 3 Sudoeste 7 Oeste 0 980.6 0.8 97
2019-04-02 08:00:00 8.1 3 Noroeste 6 Norte 0 980.3 0.4 97
2019-04-02 07:00:00 8 3 Sudoeste 6 Sudoeste 0 980 0 97
2019-04-02 06:00:00 7.4 2 Oeste 5 Sudeste 0 979.8 -0.2 97
2019-04-02 05:00:00 7.2 5 Sur 9 Sur 0 979.9 -0.5 96
2019-04-02 04:00:00 8.3 4 Oeste 5 Oeste 0 980 -0.5 95
2019-04-02 03:00:00 8.6 3 Noroeste 6 Sudoeste 0 980 -0.4 94
2019-04-02 02:00:00 9.1 0 Calma 5 Noroeste 0 980.4 0.1 94
2019-04-02 01:00:00 9.8 3 Sudeste 6 Noroeste 0 980.5 0.6 93
2019-04-02 00:00:00 10.6 3 Noroeste 8 Nordeste 0 980.4 0.9 89
2019-04-01 23:00:00 12 4 Nordeste 8 Sudeste 0 980.3 1.5 87
2019-04-01 22:00:00 12.4 4 Sudeste 18 Sudoeste 0.2 979.9 1.5 88
2019-04-01 21:00:00 12.8 10 Sur 17 Sur 0.4 979.5 1.1 85
2019-04-01 20:00:00 14.5 12 Sur 26 Sudeste 0 978.8 0 74
2019-04-01 19:00:00 15.9 10 Sudeste 21 Este 0 978.4 -0.8 64
2019-04-01 18:00:00 15.9 14 Este 22 Este 0 978.4 -1.5 61
2019-04-01 17:00:00 16.1 11 Este 22 Este 0 978.8 -1.6 62
2019-04-01 16:00:00 15.1 9 Este 24 Este 0 979.2 -1.7 67
2019-04-01 15:00:00 14.2 13 Este 23 Sudeste 0 979.9 -1.3 69
2019-04-01 14:00:00 12.9 13 Este 19 Este 0 980.4 -0.5 74
2019-04-01 13:00:00 12.1 3 Sur 13 Sudeste 0 980.9 0.5 76
2019-04-01 12:00:00 10.9 4 Sur 8 Sudeste 0 981.2 0.9 84
2019-04-01 11:00:00 10.5 4 Sudeste 9 Este 0 980.9 1 86
2019-04-01 10:00:00 9.9 3 Sudeste 6 Este 0 980.4 0.8 89
2019-04-01 09:00:00 9 2 Sudeste 6 Sudoeste 0 980.3 0.6 93
2019-04-01 08:00:00 8.8 4 Sudoeste 7 Sudoeste 0 979.9 -0.1 93
2019-04-01 07:00:00 8.9 4 Sudoeste 9 Sudeste 0 979.6 -0.7 93
2019-04-01 06:00:00 8.8 7 Sudeste 8 Sudeste 0.2 979.7 -1 93
2019-04-01 05:00:00 8.8 4 Nordeste 9 Norte 0.6 980 -1.1 93
2019-04-01 04:00:00 8.8 3 Nordeste 7 Nordeste 1 980.3 -0.8 93
2019-04-01 03:00:00 8.9 5 Norte 9 Norte 1 980.7 0.2 92
2019-04-01 02:00:00 9.1 2 Norte 10 Sur 0.6 981.1 0.1 90
2019-04-01 01:00:00 9.1 10 Sudeste 18 Sudoeste 0.4 981.1 0.8 89
2019-04-01 00:00:00 9.4 15 Sudoeste 20 Sudoeste 1 980.5 0.6 88
2019-03-31 23:00:00 10.3 7 Sudeste 17 Sudeste 0 981 1.5 81
2019-03-31 22:00:00 11.6 12 Sur 18 Sudeste 0 980.3 0.9 61
2019-03-31 21:00:00 12.1 15 Sur 26 Sur 0 979.9 0.6 54
2019-03-31 20:00:00 13 19 Sur 26 Sur 0 979.5 0 53
2019-03-31 19:00:00 13.5 17 Sur 24 Sudeste 0 979.4 -0.6 45
2019-03-31 18:00:00 14.5 18 Sur 29 Sur 0 979.3 -1.6 53
2019-03-31 17:00:00 15.6 17 Sudeste 28 Este 0 979.5 -1.8 48
2019-03-31 16:00:00 15 16 Este 27 Sudeste 0 980 -2 49
2019-03-31 15:00:00 14.1 16 Este 26 Este 0 980.9 -1.5 53
2019-03-31 14:00:00 14 12 Sudeste 26 Sudeste 0 981.3 -1.2 55
2019-03-31 13:00:00 13.6 14 Este 24 Este 0 982 -0.4 57
2019-03-31 12:00:00 13 8 Este 21 Este 0 982.4 0.1 61
2019-03-31 11:00:00 10.8 8 Este 14 Este 0 982.5 0.4 68
2019-03-31 10:00:00 8.7 9 Este 13 Este 0 982.4 0.2 79
2019-03-31 09:00:00 4.4 3 Noroeste 6 Norte 0 982.3 -0.2 87
2019-03-31 08:00:00 3.8 4 Norte 6 Norte 0 982.1 -1.2 86
2019-03-31 07:00:00 4.4 3 Norte 8 Este 0 982.2 -1.2 84
2019-03-31 06:00:00 5.8 3 Nordeste 11 Este 0 982.5 -1.1 84
2019-03-31 05:00:00 7 10 Sudeste 23 Sudeste 0 983.3 -0.3 82
2019-03-31 03:00:00 8.9 23 Este 32 Este 0 983.6 -0.3 70
2019-03-31 01:00:00 9.1 24 Este 31 Este 0 983.6 0.2 61
2019-03-31 00:00:00 9.6 16 Este 28 Este 0 983.9 0.9 55
2019-03-30 23:00:00 9.8 19 Este 30 Este 0 983.9 1.6 55
2019-03-30 22:00:00 11.9 22 Este 26 Este 0 983.4 1.3 47
2019-03-30 21:00:00 12.7 15 Este 26 Este 0 983 0.8 43
2019-03-30 20:00:00 14.6 17 Este 21 Este 0 982.3 -0.2 38
2019-03-30 19:00:00 18.2 12 Sudeste 24 Sudeste 0 982.1 -1.1 29
2019-03-30 18:00:00 18.6 17 Este 36 Este 0 982.2 -1.7 30
2019-03-30 17:00:00 19.2 18 Este 36 Este 0 982.5 -2.4 27
2019-03-30 16:00:00 18.8 20 Este 34 Este 0 983.2 -2.7 26
2019-03-30 15:00:00 18.5 21 Este 38 Este 0 983.9 -2.9 27
2019-03-30 14:00:00 17.7 18 Este 34 Este 0 984.9 -2.6 30
2019-03-30 13:00:00 16.2 16 Sudeste 32 Este 0 985.9 -1.9 37
2019-03-30 12:00:00 14.6 20 Este 33 Este 0 986.8 -1.2 44
2019-03-30 11:00:00 13 21 Este 30 Este 0 987.5 -0.6 56
2019-03-30 10:00:00 10.9 20 Este 28 Este 0 987.8 0 62
2019-03-30 09:00:00 8.2 15 Este 19 Este 0 988 0.2 68
2019-03-30 08:00:00 5.5 12 Este 20 Este 0 988.1 0.2 75
2019-03-30 07:00:00 5.3 16 Este 21 Este 0 987.8 -0.1 76
2019-03-30 06:00:00 5.6 10 Sudeste 19 Sudeste 0 987.8 -0.2 75
2019-03-30 05:00:00 6.2 14 Sudeste 27 Sudeste 0 987.9 0 71
2019-03-30 04:00:00 6.9 17 Sudeste 36 Este 0 987.9 -0.5 67
2019-03-30 03:00:00 7.7 22 Sudeste 38 Este 0 988 -0.3 63
2019-03-30 02:00:00 9.2 29 Este 39 Este 0 987.9 -0.2 56
2019-03-30 01:00:00 8.3 14 Sudeste 23 Este 0 988.4 0.8 64
2019-03-30 00:00:00 9.6 15 Este 29 Este 0 988.3 1 60
2019-03-29 23:00:00 11.1 20 Este 27 Este 0 988.1 1.5 53
2019-03-29 22:00:00 11.9 18 Este 31 Este 0 987.6 1.5 51
2019-03-29 21:00:00 13 19 Este 28 Este 0 987.3 1.5 45
2019-03-29 20:00:00 15.3 23 Este 42 Este 0 986.6 0.5 37
2019-03-29 19:00:00 17.4 33 Este 49 Este 0 986.1 -0.5 29
2019-03-29 18:00:00 18.9 31 Este 45 Este 0 985.8 -1.7 27
2019-03-29 17:00:00 20.1 27 Sudeste 40 Este 0 986.1 -2.4 19
2019-03-29 16:00:00 19.9 29 Este 46 Este 0 986.6 -2.8 19
2019-03-29 15:00:00 19.4 26 Este -- -- 0 987.5 -2.6 21
2019-03-29 14:00:00 18.8 29 Este 45 Este 0 988.5 -2.4 25
2019-03-29 13:00:00 17.2 25 Este 41 Este 0 989.4 -1.7 29
2019-03-29 12:00:00 15.8 22 Este 32 Este 0 990.1 -1 33
2019-03-29 11:00:00 13.7 18 Sudeste 30 Este 0 990.9 -0.4 41
2019-03-29 10:00:00 11.1 17 Este 23 Este 0 991.1 -0.1 47
2019-03-29 09:00:00 8.9 15 Este 22 Este 0 991.1 0.2 54
2019-03-29 08:00:00 5.8 11 Este 17 Este 0 991.3 0.6 67
2019-03-29 07:00:00 3.5 10 Sudeste 17 Sudeste 0 991.2 0.6 74
2019-03-29 06:00:00 5.2 16 Este 21 Este 0 990.9 0.1 68
2019-03-29 05:00:00 5.2 11 Sudeste 14 Sudeste 0 990.7 -0.2 68
2019-03-29 04:00:00 5.3 6 Este 12 Este 0 990.6 0 70
2019-03-29 03:00:00 4.9 7 Este 11 Este 0 990.8 0.3 76
2019-03-29 02:00:00 5.8 7 Este 9 Este 0 990.9 0.6 71
2019-03-29 01:00:00 7.3 3 Noroeste 7 Este 0 990.6 0.6 63
2019-03-29 00:00:00 7.4 6 Este 7 Este 0 990.5 1.1 64
2019-03-28 23:00:00 9.2 5 Noroeste 14 Oeste 0 990.3 1.8 58
2019-03-28 22:00:00 11.1 9 Sudoeste 17 Sudoeste 0 990 1.7 50
2019-03-28 21:00:00 12.6 6 Sudoeste 23 Noroeste 0 989.4 1.3 47
2019-03-28 20:00:00 14.9 17 Noroeste 24 Noroeste 0 988.5 0.1 41
2019-03-28 19:00:00 18.2 16 Noroeste 25 Noroeste 0 988.3 -0.7 32
2019-03-28 18:00:00 19.7 14 Oeste 27 Noroeste 0 988.1 -1.7 28
2019-03-28 17:00:00 20 14 Oeste 26 Noroeste 0 988.4 -2.3 28
2019-03-28 16:00:00 19.8 13 Noroeste 30 Oeste 0 989 -2.5 28
2019-03-28 15:00:00 19.3 10 Oeste -- -- 0 989.8 -2.5 29
2019-03-28 14:00:00 17.8 11 Noroeste 26 Noroeste 0 990.7 -2.2 31
2019-03-28 13:00:00 16.6 14 Oeste 29 Oeste 0 991.5 -1.7 34
2019-03-28 12:00:00 14.9 11 Noroeste 24 Noroeste 0 992.3 -1 41
2019-03-28 11:00:00 13.4 14 Noroeste 29 Noroeste 0 992.9 -0.4 49
2019-03-28 10:00:00 11.1 18 Noroeste 26 Noroeste 0 993.2 0.2 57
2019-03-28 09:00:00 8.5 14 Noroeste 21 Noroeste 0 993.3 0.8 65
2019-03-28 08:00:00 5.9 9 Noroeste 16 Noroeste 0 993.3 1.1 74
2019-03-28 07:00:00 5.3 5 Noroeste 18 Noroeste 0 993 1.1 76
2019-03-28 06:00:00 5.5 11 Noroeste 22 Noroeste 0 992.5 0.8 75
2019-03-28 05:00:00 6.5 18 Noroeste 35 Noroeste 0 992.2 0.6 72
2019-03-28 04:00:00 7.1 23 Oeste 35 Noroeste 0 991.9 0.5 68
2019-03-28 03:00:00 7.5 27 Oeste 42 Oeste 0 991.7 0.7 64
2019-03-28 02:00:00 7.8 29 Oeste 43 Oeste 0 991.6 1.1 63
2019-03-28 01:00:00 8.4 28 Oeste 44 Oeste 0 991.4 1.5 60
2019-03-28 00:00:00 8.9 33 Oeste 48 Noroeste 0 991 1.7 57
2019-03-27 23:00:00 9.1 36 Noroeste 54 Noroeste 0 990.5 2.4 55
2019-03-27 22:00:00 9.9 37 Noroeste 52 Oeste 0 989.9 2.7 52
2019-03-27 21:00:00 11 36 Oeste 51 Oeste 0 989.3 2.8 45
2019-03-27 20:00:00 12.5 39 Noroeste 60 Noroeste 0 988.1 1.9 36
2019-03-27 19:00:00 15.7 37 Noroeste 55 Noroeste 0 987.2 0.6 29
2019-03-27 18:00:00 18.4 34 Noroeste 54 Noroeste 0 986.5 -0.8 21
2019-03-27 17:00:00 19.5 41 Oeste 54 Oeste 0 986.2 -1.9 16
2019-03-27 16:00:00 20 38 Noroeste 48 Noroeste 0 986.6 -2.2 14
2019-03-27 15:00:00 19.7 31 Oeste 43 Oeste 0 987.3 -2.1 16
2019-03-27 14:00:00 19.2 12 Noroeste 29 Oeste 0 988.1 -1.9 18
2019-03-27 13:00:00 17.6 17 Noroeste 29 Noroeste 0 988.8 -1.2 20
2019-03-27 12:00:00 15.8 12 Noroeste 27 Noroeste 0 989.4 -0.7 23
2019-03-27 11:00:00 12.9 14 Noroeste 22 Noroeste 0 990 0 31
2019-03-27 10:00:00 10.3 12 Noroeste 19 Noroeste 0 990 0.3 42
2019-03-27 09:00:00 7.2 4 Norte 7 Norte 0 990.1 0.6 60
2019-03-27 08:00:00 3.1 0 Calma 7 Sudeste 0 990 0.7 72
2019-03-27 07:00:00 2.8 0 Calma 9 Norte 0 989.7 0.7 74
2019-03-27 06:00:00 3.4 4 Noroeste 8 Noroeste 0 989.5 0.3 70
2019-03-27 05:00:00 4.2 5 Norte 12 Noroeste 0 989.3 0.5 66
2019-03-27 04:00:00 4.7 8 Noroeste 16 Noroeste 0 989 0.4 60
2019-03-27 03:00:00 5.2 5 Noroeste 13 Noroeste 0 989.2 1.2 57
2019-03-27 02:00:00 6.9 5 Norte 27 Oeste 0 988.8 1.1 52
2019-03-27 01:00:00 8.6 21 Oeste 35 Oeste 0 988.6 1.3 48
2019-03-27 00:00:00 9.1 26 Oeste 40 Oeste 0 988 1.3 51
2019-03-26 23:00:00 9.1 26 Oeste 38 Noroeste 0 987.7 1.9 53
2019-03-26 22:00:00 9.2 21 Oeste 39 Noroeste 0 987.3 2.3 52
2019-03-26 21:00:00 10.5 29 Oeste 40 Oeste 0 986.7 2.1 45
2019-03-26 20:00:00 12.7 21 Noroeste 26 Noroeste 0 985.8 1.5 31
2019-03-26 19:00:00 16.4 20 Noroeste 40 Norte 0 985 0.8 20
2019-03-26 18:00:00 17.8 27 Norte 44 Norte 0 984.6 -0.3 19
2019-03-26 17:00:00 19 30 Norte 42 Norte 0 984.3 -1.6 15
2019-03-26 16:00:00 21.3 9 Noroeste 28 Oeste 0 984.2 -2.8 12
2019-03-26 15:00:00 20.3 16 Noroeste 31 Noroeste 0 984.9 -2.9 12
2019-03-26 14:00:00 19.2 15 Noroeste 28 Sudoeste 0 985.9 -2.3 13
2019-03-26 13:00:00 17.5 12 Noroeste 24 Noroeste 0 987 -1.2 18
2019-03-26 12:00:00 15.3 15 Oeste 31 Oeste 0 987.8 -0.4 24
2019-03-26 11:00:00 13.1 16 Oeste 27 Oeste 0 988.2 0.3 30
2019-03-26 10:00:00 10.9 21 Noroeste 39 Oeste 0 988.2 1.1 40
2019-03-26 09:00:00 8.7 29 Noroeste 38 Oeste 0 988.2 1.5 49
2019-03-26 08:00:00 7 27 Noroeste 41 Noroeste 0 987.9 1.4 56
2019-03-26 07:00:00 6.8 30 Noroeste 44 Oeste 0 987.1 0.7 59
2019-03-26 06:00:00 7.2 34 Noroeste 51 Oeste 0 986.7 0.1 61
2019-03-26 05:00:00 7.6 35 Oeste 48 Oeste 0 986.5 -0.5 61
2019-03-26 04:00:00 8 34 Noroeste 52 Oeste 0 986.4 -0.6 61
2019-03-26 03:00:00 8.6 39 Oeste 55 Oeste 0 986.6 -0.4 60
2019-03-26 02:00:00 8.8 33 Oeste 51 Oeste 0 987 0.1 63
2019-03-26 01:00:00 8.9 31 Oeste 53 Noroeste 0 987 0.2 65
2019-03-26 00:00:00 8.9 39 Oeste 59 Noroeste 0 987 0.7 65
2019-03-25 23:00:00 8.6 44 Noroeste 58 Noroeste 0 986.9 1.4 64
2019-03-25 22:00:00 8.5 42 Noroeste 60 Oeste 0 986.8 1.6 61
2019-03-25 21:00:00 9.6 40 Noroeste 58 Noroeste 0 986.3 1.4 62
2019-03-25 20:00:00 10.6 46 Noroeste 62 Noroeste 0 985.5 0.6 58
2019-03-25 19:00:00 12 49 Noroeste 68 Noroeste 0 985.2 -0.2 51
2019-03-25 18:00:00 14 47 Noroeste 72 Noroeste 0 984.9 -1.2 44
2019-03-25 17:00:00 15.6 48 Noroeste 64 Noroeste 0 984.9 -2.6 36
2019-03-25 16:00:00 15.7 48 Noroeste 65 Oeste 0 985.4 -2.8 35
2019-03-25 15:00:00 15.3 44 Noroeste 67 Noroeste 0 986.1 -2.7 36
2019-03-25 14:00:00 14.2 46 Noroeste 65 Noroeste 0 987.5 -1.5 37
2019-03-25 13:00:00 13.9 46 Noroeste 68 Noroeste 0 988.2 -0.9 39
2019-03-25 12:00:00 13.8 46 Noroeste 67 Noroeste 0 988.8 0 42
2019-03-25 11:00:00 13.4 43 Noroeste 59 Noroeste 0 989 0.5 45
2019-03-25 10:00:00 13.1 38 Noroeste 56 Noroeste 0 989.1 1.1 52
2019-03-25 09:00:00 11.4 29 Oeste 43 Oeste 0 988.8 1.2 61
2019-03-25 08:00:00 9.8 32 Oeste 52 Oeste 0 988.5 1.2 67
2019-03-25 07:00:00 9.4 34 Oeste 50 Oeste 0 988 0.7 69
2019-03-25 06:00:00 9.5 33 Noroeste 52 Noroeste 0 987.6 0 67
2019-03-25 05:00:00 10.1 35 Noroeste 46 Noroeste 0 987.3 -0.2 57
2019-03-25 04:00:00 10.7 29 Noroeste 39 Noroeste 0 987.3 -0.4 51
2019-03-25 03:00:00 11.2 24 Noroeste 38 Noroeste 0 987.6 0 48
2019-03-25 02:00:00 11.9 30 Noroeste 42 Noroeste 0 987.5 -0.2 47
2019-03-25 01:00:00 12.3 26 Oeste 38 Oeste 0 987.7 0.4 46
2019-03-25 00:00:00 12.7 31 Noroeste 42 Noroeste 0 987.6 0.9 46
2019-03-24 23:00:00 13.2 23 Oeste 33 Oeste 0 987.7 1.5 52
2019-03-24 22:00:00 14.2 18 Noroeste 29 Noroeste 0 987.3 1.5 50
2019-03-24 21:00:00 15.9 22 Noroeste 31 Noroeste 0 986.7 1.2 42
2019-03-24 20:00:00 18.2 26 Noroeste 38 Noroeste 0 986.2 0.6 27
2019-03-24 19:00:00 20.7 29 Noroeste 40 Noroeste 0 985.8 -0.2 19
2019-03-24 18:00:00 22.5 29 Noroeste 45 Noroeste 0 985.5 -1.1 19
2019-03-24 17:00:00 23.7 25 Noroeste 38 Noroeste 0 985.6 -2.1 16
2019-03-24 16:00:00 24.1 23 Noroeste 36 Noroeste 0 986 -2.6 15
2019-03-24 15:00:00 23.7 15 Noroeste 27 Noroeste 0 986.6 -2.8 19
2019-03-24 14:00:00 22.5 10 Noroeste 20 Oeste 0 987.7 -2.2 26
2019-03-24 13:00:00 20.7 9 Oeste 18 Oeste 0 988.6 -1.5 29
2019-03-24 12:00:00 18.8 8 Oeste 14 Oeste 0 989.4 -0.7 34
2019-03-24 11:00:00 15.2 10 Oeste 16 Oeste 0 989.9 0.1 44
2019-03-24 10:00:00 10.8 5 Oeste 8 Sudoeste 0 990.1 0.6 57
2019-03-24 09:00:00 8.2 0 Calma 5 Sur 0 990.1 0.9 63
2019-03-24 08:00:00 4.1 0 Calma 3 Norte 0 989.8 0.7 70
2019-03-24 07:00:00 2.9 0 Calma 4 Noroeste 0 989.5 0.6 75
2019-03-24 06:00:00 3.7 3 Noroeste 8 Noroeste 0 989.2 0.2 71
2019-03-24 05:00:00 4.2 6 Noroeste 7 Noroeste 0 989.1 0.1 71
2019-03-24 04:00:00 5.1 5 Norte 7 Noroeste 0 988.9 -0.2 67
2019-03-24 03:00:00 5.8 0 Calma 9 Noroeste 0 989 -0.1 66
2019-03-24 02:00:00 6.8 3 Noroeste 6 Noroeste 0 989 0.1 64
2019-03-24 01:00:00 7.8 0 Calma 9 Este 0 989.1 0.3 61
2019-03-24 00:00:00 9.9 4 Este 12 Noroeste 0 989.1 0.6 53
2019-03-23 23:00:00 10.1 6 Sur 9 Norte 0 988.9 0.9 48
2019-03-23 22:00:00 11.7 7 Noroeste 10 Noroeste 0 988.8 1.1 42
2019-03-23 21:00:00 14.9 5 Nordeste 8 Norte 0 988.5 1.1 33
2019-03-23 20:00:00 17.8 5 Sur 16 Sur 0 988 0.1 27
2019-03-23 19:00:00 21 13 Sur 23 Sur 0 987.7 -0.7 21
2019-03-23 18:00:00 22.6 8 Sudeste 24 Sudeste 0 987.4 -1.6 21
2019-03-23 17:00:00 22.8 11 Este 21 Este 0 987.9 -2.1 15
2019-03-23 16:00:00 23.3 4 Sudoeste 13 Sudeste 0 988.4 -2.5 20
2019-03-23 15:00:00 22.2 4 Este 11 Noroeste 0 989 -2.6 23
2019-03-23 14:00:00 21.2 6 Oeste 12 Noroeste 0 990 -2.2 26
2019-03-23 13:00:00 19.3 3 Norte 11 Oeste 0 990.9 -1.7 32
2019-03-23 12:00:00 16.5 4 Nordeste 10 Sudoeste 0 991.6 -1 38
2019-03-23 11:00:00 13.9 4 Este 8 Nordeste 0 992.2 -0.2 44
2019-03-23 10:00:00 10.4 3 Sur 8 Sur 0 992.6 0.7 55
2019-03-23 09:00:00 6.8 0 Calma 5 Norte 0 992.6 1.1 67
2019-03-23 08:00:00 1.9 2 Sur 5 Este 0 992.4 1 73
2019-03-23 07:00:00 1.8 2 Oeste 5 Sudeste 0 991.9 0.3 75
2019-03-23 06:00:00 2.4 4 Sur 6 Sudeste 0 991.5 -0.5 74
2019-03-23 05:00:00 3.1 4 Noroeste 5 Norte 0 991.4 -0.6 74
2019-03-23 04:00:00 3.4 0 Calma 6 Norte 0 991.6 -0.3 72
2019-03-23 03:00:00 4.3 5 Nordeste 7 Norte 0 992 0.2 68
2019-03-23 02:00:00 5.5 2 Noroeste 8 Sudeste 0 992 0.3 64
2019-03-23 01:00:00 7.1 2 Este 8 Sur 0 991.9 0.4 62
2019-03-23 00:00:00 8.2 4 Sudoeste 6 Sur 0 991.8 0.7 57
2019-03-22 23:00:00 8.9 0 Calma 8 Noroeste 0 991.7 1.2 55
2019-03-22 22:00:00 9.5 8 Noroeste 10 Noroeste 0 991.5 1.3 51
2019-03-22 21:00:00 13.2 3 Norte 5 Noroeste 0 991.1 1 38
2019-03-22 20:00:00 15.7 3 Oeste 7 Sur 0 990.5 0.2 31
2019-03-22 19:00:00 18.8 6 Sudeste 14 Sudeste 0 990.2 -0.5 25
2019-03-22 18:00:00 19.6 6 Sudeste 24 Este 0 990.1 -1.1 23
2019-03-22 17:00:00 19.6 13 Este 27 Este 0 990.3 -1.7 23
2019-03-22 16:00:00 19.8 17 Sudeste 26 Sudeste 0 990.7 -2.1 22
2019-03-22 15:00:00 19.6 9 Sudeste 19 Sur 0 991.2 -2.2 23
2019-03-22 14:00:00 18.6 7 Sur 17 Sudoeste 0 992 -1.9 23
2019-03-22 13:00:00 17.3 7 Sudoeste 12 Sudoeste 0 992.8 -1 22
2019-03-22 12:00:00 15.4 3 Sudoeste 9 Sudoeste 0 993.4 -0.3 29
2019-03-22 11:00:00 12.6 3 Sudoeste 6 Norte 0 993.9 0.5 38
2019-03-22 10:00:00 9.1 0 Calma 4 Sudoeste 0 993.8 0.9 52
2019-03-22 09:00:00 4.4 0 Calma 4 Noroeste 0 993.7 1.1 67
2019-03-22 08:00:00 0.4 3 Noroeste 6 Noroeste 0 993.4 1.1 75
2019-03-22 07:00:00 -0.5 5 Noroeste 7 Noroeste 0 992.9 0.8 76
2019-03-22 06:00:00 0.1 3 Oeste 5 Oeste 0 992.6 0.5 80
2019-03-22 05:00:00 0.6 2 Norte 3 Norte 0 992.3 0.1 70
2019-03-22 04:00:00 1.2 0 Calma 5 Noroeste 0 992.1 -0.1 70
2019-03-22 03:00:00 2.1 0 Calma 5 Nordeste 0 992.1 0 66
2019-03-22 02:00:00 2.9 4 Nordeste 5 Nordeste 0 992.2 0.3 65
2019-03-22 01:00:00 3.5 3 Sudeste 8 Noroeste 0 992.2 0.7 64
2019-03-22 00:00:00 5.2 2 Sur 6 Sur 0 992.1 0.8 60
2019-03-21 23:00:00 5.9 2 Noroeste 9 Noroeste 0 991.9 1.1 56
2019-03-21 22:00:00 7.7 3 Nordeste 7 Este 0 991.5 1.1 53
2019-03-21 21:00:00 9.6 5 Sudeste 9 Sur 0 991.3 1.2 43
2019-03-21 20:00:00 12.6 7 Sur 13 Este 0 990.8 0.6 33
2019-03-21 19:00:00 15.9 6 Sudeste 13 Este 0 990.4 -0.4 27
2019-03-21 18:00:00 16.6 7 Este 16 Sur 0 990.1 -1.3 27
2019-03-21 17:00:00 17.1 3 Este 13 Nordeste 0 990.2 -2 25
2019-03-21 16:00:00 16.7 8 Este 14 Sudeste 0 990.8 -2.1 25
2019-03-21 15:00:00 16.3 9 Sudoeste 17 Sudoeste 0 991.4 -1.8 26
2019-03-21 14:00:00 15.4 10 Sudeste 16 Sudeste 0 992.2 -1.5 27
2019-03-21 13:00:00 14.5 3 Sudoeste 13 Noroeste 0 992.9 -1.1 31
2019-03-21 12:00:00 13.2 6 Noroeste 22 Oeste 0 993.2 -0.8 35
2019-03-21 11:00:00 10.8 13 Noroeste 22 Noroeste 0 993.7 -0.3 49
2019-03-21 10:00:00 8.5 13 Noroeste 21 Noroeste 0 994 0.4 61
2019-03-21 09:00:00 5.1 10 Noroeste 14 Noroeste 0 994 0.8 75
2019-03-21 08:00:00 0.7 2 Sur 5 Sudeste 0 994 1.1 83
2019-03-21 07:00:00 0.6 2 Este 8 Noroeste 0 993.6 0.8 85
2019-03-21 06:00:00 2.4 4 Noroeste 13 Noroeste 0 993.2 0.1 82
2019-03-21 05:00:00 2.9 6 Norte 12 Noroeste 0 992.9 -0.4 79
2019-03-21 04:00:00 3.5 7 Noroeste 13 Noroeste 0 992.8 -0.6 77
2019-03-21 03:00:00 4.3 8 Norte 15 Oeste 0 993.1 -0.3 75
2019-03-21 02:00:00 6.1 16 Noroeste 37 Oeste 0 993.3 -0.1 67
2019-03-21 01:00:00 6.6 24 Oeste 38 Oeste 0 993.4 0.2 66
2019-03-21 00:00:00 7.2 26 Oeste 39 Oeste 0 993.4 0.9 66